Time;durP1;ratioP1;P1;durP2;ratioP2;P2;SDS_P1;SDS_P2;PMS_P1;PMS_P2;Temp;Humidity;BMP_temperature;BMP_pressure;BME280_temperature;BME280_humidity;BME280_pressure;Samples;Min_cycle;Max_cycle;Signal;HPM_P1;HPM_P2
2021/09/12 00:01:41;;;;;;;46.20;27.27;;;;;;;;;;5096581;28;20829;-85
2021/09/12 00:04:08;;;;;;;48.20;28.25;;;;;;;;;;5097340;28;20111;-85
2021/09/12 00:06:38;;;;;;;47.15;26.63;;;;;;;;;;5098367;28;20066;-85
2021/09/12 00:09:08;;;;;;;47.83;27.02;;;;;;;;;;5097695;28;20044;-85
2021/09/12 00:11:34;;;;;;;52.75;29.55;;;;;;;;;;5099257;28;20044;-85
2021/09/12 00:14:10;;;;;;;54.03;28.30;;;;;;;;;;5099326;28;20362;-85
2021/09/12 00:16:36;;;;;;;50.15;28.75;;;;;;;;;;5100683;28;20071;-85
2021/09/12 00:19:07;;;;;;;53.28;29.75;;;;;;;;;;5099895;28;20344;-86
2021/09/12 00:21:34;;;;;;;52.08;30.85;;;;;;;;;;5100182;28;20048;-85
2021/09/12 00:24:01;;;;;;;56.00;30.05;;;;;;;;;;5099846;28;20127;-85
2021/09/12 00:26:28;;;;;;;54.00;30.00;;;;;;;;;;5076812;28;20147;-85
2021/09/12 00:28:54;;;;;;;53.50;30.42;;;;;;;;;;5096028;28;20041;-85
2021/09/12 00:31:21;;;;;;;54.72;29.85;;;;;;;;;;5089882;28;20097;-84
2021/09/12 00:33:48;;;;;;;54.40;29.20;;;;;;;;;;5086440;28;20150;-85
2021/09/12 00:36:14;;;;;;;58.72;32.88;;;;;;;;;;5099002;28;20044;-85
2021/09/12 00:38:41;;;;;;;62.95;32.38;;;;;;;;;;5106459;28;20075;-84
2021/09/12 00:41:11;;;;;;;56.28;31.67;;;;;;;;;;5108785;28;20077;-84
2021/09/12 00:43:37;;;;;;;65.03;34.22;;;;;;;;;;5101780;28;20087;-85
2021/09/12 00:46:07;;;;;;;65.80;35.03;;;;;;;;;;5098866;28;20075;-84
2021/09/12 00:48:35;;;;;;;74.80;35.38;;;;;;;;;;5103547;28;20028;-85
2021/09/12 00:51:02;;;;;;;58.08;32.15;;;;;;;;;;5112535;28;20046;-85
2021/09/12 00:53:30;;;;;;;67.40;34.05;;;;;;;;;;5111983;28;20056;-84
2021/09/12 00:56:00;;;;;;;64.03;33.20;;;;;;;;;;5112406;28;20036;-84
2021/09/12 00:58:29;;;;;;;60.50;33.72;;;;;;;;;;5102108;28;20442;-85
2021/09/12 01:00:57;;;;;;;59.92;31.90;;;;;;;;;;5098209;28;20120;-85
2021/09/12 01:03:26;;;;;;;62.13;33.30;;;;;;;;;;5075949;28;20062;-85
2021/09/12 01:05:53;;;;;;;63.72;34.25;;;;;;;;;;5107964;28;20052;-85
2021/09/12 01:08:20;;;;;;;66.13;34.30;;;;;;;;;;5111228;28;20063;-85
2021/09/12 01:10:48;;;;;;;60.45;32.97;;;;;;;;;;5104177;28;20307;-85
2021/09/12 01:13:15;;;;;;;61.30;34.03;;;;;;;;;;5097913;28;20044;-85
2021/09/12 01:15:48;;;;;;;66.15;34.08;;;;;;;;;;5098152;28;20135;-85
2021/09/12 01:18:14;;;;;;;60.33;32.55;;;;;;;;;;5096683;28;20054;-85
2021/09/12 01:20:41;;;;;;;55.45;29.60;;;;;;;;;;5093158;28;20147;-84
2021/09/12 01:23:08;;;;;;;62.88;31.70;;;;;;;;;;5096869;28;20150;-85
2021/09/12 01:25:35;;;;;;;58.35;32.20;;;;;;;;;;5096906;28;20155;-84
2021/09/12 01:28:05;;;;;;;59.35;31.50;;;;;;;;;;5097534;28;20285;-85
2021/09/12 01:30:32;;;;;;;60.03;32.83;;;;;;;;;;5096457;28;20195;-85
2021/09/12 01:33:00;;;;;;;54.05;29.92;;;;;;;;;;5094990;28;20047;-85
2021/09/12 01:35:35;;;;;;;61.95;33.00;;;;;;;;;;5096757;28;20402;-85
2021/09/12 01:38:02;;;;;;;54.70;31.98;;;;;;;;;;5096352;28;20100;-84
2021/09/12 01:40:29;;;;;;;57.63;31.27;;;;;;;;;;5096252;28;20163;-84
2021/09/12 01:42:59;;;;;;;65.65;33.03;;;;;;;;;;5096682;28;20044;-84
2021/09/12 01:45:29;;;;;;;61.28;33.33;;;;;;;;;;5097041;28;20040;-84
2021/09/12 01:48:05;;;;;;;67.60;33.13;;;;;;;;;;5098007;28;20048;-85
2021/09/12 01:50:32;;;;;;;65.93;33.53;;;;;;;;;;5098474;28;20393;-87
2021/09/12 01:52:59;;;;;;;64.78;32.58;;;;;;;;;;5097332;28;20404;-86
2021/09/12 01:55:26;;;;;;;65.45;35.80;;;;;;;;;;5104937;28;20044;-84
2021/09/12 01:57:52;;;;;;;64.60;33.58;;;;;;;;;;5108425;28;20067;-85
2021/09/12 02:00:20;;;;;;;64.82;34.05;;;;;;;;;;5093951;28;20059;-85
2021/09/12 02:02:46;;;;;;;61.47;31.92;;;;;;;;;;5076943;28;20096;-84
2021/09/12 02:05:14;;;;;;;67.75;36.42;;;;;;;;;;5076889;28;20080;-84
2021/09/12 02:07:40;;;;;;;67.72;34.55;;;;;;;;;;5077158;28;20118;-84
2021/09/12 02:10:08;;;;;;;70.10;36.30;;;;;;;;;;5076272;28;20048;-84
2021/09/12 02:12:34;;;;;;;62.13;34.25;;;;;;;;;;5073977;28;20163;-84
2021/09/12 02:15:01;;;;;;;72.07;33.58;;;;;;;;;;5074348;28;20048;-84
2021/09/12 02:17:28;;;;;;;60.63;32.60;;;;;;;;;;5076434;28;20112;-83
2021/09/12 02:19:56;;;;;;;65.72;33.50;;;;;;;;;;5079313;28;20171;-83
2021/09/12 02:22:22;;;;;;;59.50;32.85;;;;;;;;;;5076472;28;20467;-84
2021/09/12 02:24:49;;;;;;;61.00;32.05;;;;;;;;;;5075394;28;20104;-84
2021/09/12 02:27:16;;;;;;;72.88;34.88;;;;;;;;;;5075300;28;20052;-85
2021/09/12 02:29:43;;;;;;;68.57;35.30;;;;;;;;;;5075546;28;20132;-83
2021/09/12 02:32:10;;;;;;;70.63;37.30;;;;;;;;;;5075436;28;20151;-84
2021/09/12 02:34:36;;;;;;;81.30;38.00;;;;;;;;;;5081978;28;20045;-83
2021/09/12 02:37:03;;;;;;;77.45;35.60;;;;;;;;;;5087305;28;20044;-83
2021/09/12 02:39:29;;;;;;;69.28;35.58;;;;;;;;;;5084501;28;20079;-84
2021/09/12 02:42:00;;;;;;;73.78;35.95;;;;;;;;;;5075784;28;20055;-84
2021/09/12 02:44:26;;;;;;;71.60;36.50;;;;;;;;;;5076634;28;20355;-84
2021/09/12 02:46:56;;;;;;;73.47;35.92;;;;;;;;;;5077405;28;20321;-84
2021/09/12 02:49:22;;;;;;;80.65;36.35;;;;;;;;;;5077652;28;20612;-84
2021/09/12 02:51:49;;;;;;;74.93;36.17;;;;;;;;;;5077393;28;20056;-84
2021/09/12 02:54:18;;;;;;;75.30;35.47;;;;;;;;;;5076287;28;20049;-84
2021/09/12 02:56:45;;;;;;;84.82;36.78;;;;;;;;;;5077342;28;20051;-84
2021/09/12 02:59:17;;;;;;;72.78;36.50;;;;;;;;;;5076955;28;20136;-84
2021/09/12 03:01:54;;;;;;;80.38;37.75;;;;;;;;;;5078142;28;20048;-84
2021/09/12 03:04:24;;;;;;;82.45;39.67;;;;;;;;;;5075681;28;20421;-83
2021/09/12 03:06:51;;;;;;;80.38;37.92;;;;;;;;;;5077646;28;20340;-84
2021/09/12 03:09:20;;;;;;;85.75;39.55;;;;;;;;;;5076931;28;20209;-83
2021/09/12 03:11:46;;;;;;;69.97;35.28;;;;;;;;;;5076906;28;20116;-83
2021/09/12 03:14:22;;;;;;;84.70;39.58;;;;;;;;;;5075816;28;20049;-83
2021/09/12 03:16:49;;;;;;;83.82;38.28;;;;;;;;;;5075948;28;20193;-84
2021/09/12 03:19:16;;;;;;;86.38;39.45;;;;;;;;;;5075780;28;20055;-84
2021/09/12 03:21:44;;;;;;;96.78;39.58;;;;;;;;;;5075818;28;20436;-83
2021/09/12 03:24:11;;;;;;;89.53;39.45;;;;;;;;;;5075463;28;20080;-83
2021/09/12 03:26:37;;;;;;;87.47;39.55;;;;;;;;;;5076135;28;20084;-83
2021/09/12 03:29:04;;;;;;;89.50;41.30;;;;;;;;;;5075274;28;20139;-84
2021/09/12 03:31:31;;;;;;;93.78;40.70;;;;;;;;;;5081249;28;20087;-84
2021/09/12 03:33:57;;;;;;;89.45;40.38;;;;;;;;;;5088413;28;20079;-83
2021/09/12 03:36:24;;;;;;;87.32;39.33;;;;;;;;;;5094354;28;20037;-84
2021/09/12 03:38:51;;;;;;;89.88;41.83;;;;;;;;;;5086000;28;20049;-84
2021/09/12 03:41:17;;;;;;;90.28;40.90;;;;;;;;;;5079467;28;20058;-84
2021/09/12 03:43:44;;;;;;;86.53;42.15;;;;;;;;;;5100807;28;20247;-84
2021/09/12 03:46:11;;;;;;;90.90;41.92;;;;;;;;;;5114561;28;20035;-84
2021/09/12 03:48:38;;;;;;;84.95;39.95;;;;;;;;;;5102648;28;20047;-84
2021/09/12 03:51:04;;;;;;;87.80;40.67;;;;;;;;;;5098723;28;20048;-84
2021/09/12 03:53:31;;;;;;;82.03;39.13;;;;;;;;;;5097920;28;20055;-84
2021/09/12 03:55:58;;;;;;;79.40;37.05;;;;;;;;;;5098577;28;20089;-84
2021/09/12 03:58:24;;;;;;;81.43;38.20;;;;;;;;;;5101307;28;20040;-84
2021/09/12 04:00:51;;;;;;;90.57;41.05;;;;;;;;;;5099441;28;20333;-84
2021/09/12 04:03:18;;;;;;;86.72;38.25;;;;;;;;;;5105588;28;20116;-84
2021/09/12 04:05:45;;;;;;;85.40;39.20;;;;;;;;;;5114077;28;20052;-84
2021/09/12 04:08:14;;;;;;;82.57;38.30;;;;;;;;;;5111049;28;20107;-83
2021/09/12 04:10:41;;;;;;;79.47;38.40;;;;;;;;;;5102448;28;20138;-83
2021/09/12 04:13:10;;;;;;;80.07;38.13;;;;;;;;;;5111948;28;20059;-83
2021/09/12 04:15:37;;;;;;;86.97;41.72;;;;;;;;;;5114025;28;20054;-83
2021/09/12 04:18:04;;;;;;;79.05;37.63;;;;;;;;;;5102339;28;20067;-83
2021/09/12 04:20:31;;;;;;;89.30;40.50;;;;;;;;;;5093501;28;20053;-83
2021/09/12 04:22:57;;;;;;;83.82;38.88;;;;;;;;;;5076439;28;20065;-84
2021/09/12 04:25:24;;;;;;;88.72;40.00;;;;;;;;;;5077934;28;20052;-84
2021/09/12 04:27:51;;;;;;;90.53;40.75;;;;;;;;;;5079339;28;20076;-83
2021/09/12 04:30:18;;;;;;;93.97;42.35;;;;;;;;;;5078549;28;20048;-84
2021/09/12 04:32:44;;;;;;;86.10;42.72;;;;;;;;;;5077628;28;20087;-83
2021/09/12 04:35:11;;;;;;;87.70;40.95;;;;;;;;;;5095108;28;20079;-83
2021/09/12 04:37:38;;;;;;;86.88;41.25;;;;;;;;;;5098868;28;20108;-83
2021/09/12 04:40:05;;;;;;;96.95;42.95;;;;;;;;;;5098121;28;20048;-84
2021/09/12 04:42:32;;;;;;;93.75;41.70;;;;;;;;;;5098607;28;20134;-84
2021/09/12 04:45:02;;;;;;;97.15;42.53;;;;;;;;;;5097007;28;20040;-84
2021/09/12 04:47:29;;;;;;;95.25;40.92;;;;;;;;;;5096330;28;20102;-84
2021/09/12 04:49:55;;;;;;;101.00;42.10;;;;;;;;;;5095488;28;20075;-84
2021/09/12 04:52:22;;;;;;;91.78;43.08;;;;;;;;;;5096444;28;20117;-84
2021/09/12 04:54:49;;;;;;;83.40;39.63;;;;;;;;;;5097137;28;20056;-84
2021/09/12 04:57:15;;;;;;;85.53;40.40;;;;;;;;;;5105927;28;20230;-84
2021/09/12 04:59:42;;;;;;;93.63;42.45;;;;;;;;;;5110599;28;20101;-84
2021/09/12 05:02:09;;;;;;;92.72;43.15;;;;;;;;;;5107168;28;20051;-84
2021/09/12 05:04:36;;;;;;;91.20;42.00;;;;;;;;;;5106216;28;20052;-84
2021/09/12 05:07:03;;;;;;;93.05;43.95;;;;;;;;;;5097367;28;20079;-84
2021/09/12 05:09:29;;;;;;;95.30;42.53;;;;;;;;;;5087787;28;20040;-84
2021/09/12 05:11:58;;;;;;;89.68;41.90;;;;;;;;;;5075414;28;20044;-84
2021/09/12 05:14:31;;;;;;;91.95;41.30;;;;;;;;;;5076441;28;20084;-84
2021/09/12 05:16:58;;;;;;;90.85;41.53;;;;;;;;;;5076664;28;20048;-84
2021/09/12 05:19:25;;;;;;;89.60;40.22;;;;;;;;;;5078893;28;20057;-85
2021/09/12 05:22:01;;;;;;;87.72;38.92;;;;;;;;;;5077326;28;20060;-85
2021/09/12 05:24:28;;;;;;;93.70;41.05;;;;;;;;;;5085992;28;20118;-84
2021/09/12 05:26:54;;;;;;;88.88;42.50;;;;;;;;;;5103746;28;20248;-84
2021/09/12 05:29:31;;;;;;;87.85;39.83;;;;;;;;;;5081682;28;20045;-84
2021/09/12 05:31:58;;;;;;;83.85;40.92;;;;;;;;;;5093483;28;20356;-84
2021/09/12 05:34:25;;;;;;;90.15;41.08;;;;;;;;;;5084503;28;20174;-84
2021/09/12 05:36:56;;;;;;;88.00;41.50;;;;;;;;;;5109266;28;20130;-84
2021/09/12 05:39:22;;;;;;;84.93;40.05;;;;;;;;;;5110849;28;20099;-84
2021/09/12 05:41:49;;;;;;;82.85;41.42;;;;;;;;;;5103207;28;20064;-84
2021/09/12 05:44:16;;;;;;;88.47;42.17;;;;;;;;;;5098363;28;20143;-84
2021/09/12 05:46:42;;;;;;;76.53;39.65;;;;;;;;;;5100147;28;20149;-84
2021/09/12 05:49:09;;;;;;;76.45;40.22;;;;;;;;;;5099571;28;20056;-84
2021/09/12 05:51:36;;;;;;;77.35;39.08;;;;;;;;;;5098867;28;20059;-84
2021/09/12 05:54:03;;;;;;;80.93;40.50;;;;;;;;;;5097532;28;20094;-84
2021/09/12 05:56:30;;;;;;;80.13;40.78;;;;;;;;;;5098214;28;20131;-84
2021/09/12 05:58:57;;;;;;;81.72;40.17;;;;;;;;;;5097064;28;20076;-84
2021/09/12 06:01:23;;;;;;;73.28;37.78;;;;;;;;;;5096650;28;20321;-84
2021/09/12 06:03:51;;;;;;;71.57;36.92;;;;;;;;;;5096800;28;20154;-84
2021/09/12 06:06:24;;;;;;;76.10;39.25;;;;;;;;;;5096513;28;20107;-84
2021/09/12 06:08:51;;;;;;;69.55;37.85;;;;;;;;;;5096846;28;20052;-84
2021/09/12 06:11:17;;;;;;;70.05;38.17;;;;;;;;;;5097932;28;20130;-84
2021/09/12 06:13:44;;;;;;;70.85;37.08;;;;;;;;;;5096713;28;20052;-84
2021/09/12 06:16:11;;;;;;;62.83;34.50;;;;;;;;;;5107506;28;20044;-85
2021/09/12 06:18:38;;;;;;;60.58;34.25;;;;;;;;;;5107690;28;20044;-84
2021/09/12 06:21:24;;;;;;;59.40;33.47;;;;;;;;;;5099947;28;20047;-85
2021/09/12 06:23:50;;;;;;;61.25;33.95;;;;;;;;;;5057669;28;20082;-86
2021/09/12 06:26:17;;;;;;;53.88;29.98;;;;;;;;;;5056049;28;20045;-85
2021/09/12 06:28:44;;;;;;;56.25;31.77;;;;;;;;;;5057623;28;20075;-85
2021/09/12 06:31:11;;;;;;;56.97;31.40;;;;;;;;;;5079207;28;20044;-85
2021/09/12 06:33:39;;;;;;;46.60;29.38;;;;;;;;;;5092743;28;20044;-85
2021/09/12 06:36:06;;;;;;;58.53;30.40;;;;;;;;;;5078397;28;20052;-85
2021/09/12 06:38:33;;;;;;;58.80;31.00;;;;;;;;;;5077859;28;20067;-85
2021/09/12 06:41:00;;;;;;;48.45;29.00;;;;;;;;;;5083456;28;20048;-85
2021/09/12 06:43:27;;;;;;;47.20;29.10;;;;;;;;;;5088637;28;20048;-85
2021/09/12 06:45:54;;;;;;;53.42;29.35;;;;;;;;;;5076701;28;20056;-85
2021/09/12 06:48:21;;;;;;;53.78;28.02;;;;;;;;;;5044813;28;20144;-85
2021/09/12 06:50:48;;;;;;;56.78;29.00;;;;;;;;;;5035936;28;20424;-86
2021/09/12 06:53:15;;;;;;;46.90;26.38;;;;;;;;;;5040725;28;20044;-86
2021/09/12 06:55:51;;;;;;;48.05;27.65;;;;;;;;;;5035566;28;20056;-84
2021/09/12 06:58:20;;;;;;;43.28;25.48;;;;;;;;;;5036112;28;20132;-85
2021/09/12 07:00:51;;;;;;;49.65;26.05;;;;;;;;;;5037812;28;20117;-85
2021/09/12 07:03:18;;;;;;;50.83;26.38;;;;;;;;;;5041285;28;20037;-86
2021/09/12 07:05:51;;;;;;;45.13;26.13;;;;;;;;;;5045871;28;20313;-83
2021/09/12 07:08:18;;;;;;;36.20;22.83;;;;;;;;;;5051520;28;20044;-85
2021/09/12 07:10:52;;;;;;;44.15;23.95;;;;;;;;;;5058125;28;20056;-85
2021/09/12 07:13:25;;;;;;;43.65;24.52;;;;;;;;;;5060347;28;20045;-85
2021/09/12 07:15:52;;;;;;;43.53;22.83;;;;;;;;;;5061132;28;20114;-85
2021/09/12 07:18:21;;;;;;;40.25;23.17;;;;;;;;;;5060696;28;20049;-85
2021/09/12 07:20:48;;;;;;;41.90;21.92;;;;;;;;;;5057965;28;20080;-84
2021/09/12 07:23:15;;;;;;;39.17;23.58;;;;;;;;;;5087478;28;20058;-84
2021/09/12 07:26:10;;;;;;;38.50;22.20;;;;;;;;;;5080343;28;20494;-84
2021/09/12 07:28:38;;;;;;;36.92;21.55;;;;;;;;;;5079633;28;20045;-84
2021/09/12 07:31:05;;;;;;;41.55;20.60;;;;;;;;;;5086041;28;20046;-84
2021/09/12 07:33:32;;;;;;;36.85;22.05;;;;;;;;;;5086754;28;20578;-85
2021/09/12 07:35:59;;;;;;;46.40;21.95;;;;;;;;;;5088949;28;20262;-84
2021/09/12 07:38:32;;;;;;;43.47;21.88;;;;;;;;;;5081866;28;20070;-84
2021/09/12 07:40:59;;;;;;;34.25;19.70;;;;;;;;;;5078660;28;20054;-84
2021/09/12 07:43:35;;;;;;;36.85;20.30;;;;;;;;;;5075478;28;20254;-84
2021/09/12 07:46:01;;;;;;;37.60;21.20;;;;;;;;;;5078630;28;20067;-85
2021/09/12 07:48:28;;;;;;;35.30;20.42;;;;;;;;;;5081405;28;20045;-84
2021/09/12 07:50:57;;;;;;;34.15;19.48;;;;;;;;;;5079890;28;20431;-84
2021/09/12 07:53:30;;;;;;;41.03;20.88;;;;;;;;;;5090371;28;20048;-86
2021/09/12 07:55:57;;;;;;;40.53;20.77;;;;;;;;;;5097213;28;20101;-83
2021/09/12 07:58:24;;;;;;;36.60;19.60;;;;;;;;;;5095434;28;20205;-84
2021/09/12 08:00:54;;;;;;;35.90;20.95;;;;;;;;;;5096809;28;20074;-84
2021/09/12 08:03:21;;;;;;;33.88;19.75;;;;;;;;;;5095157;28;20243;-84
2021/09/12 08:05:49;;;;;;;35.67;20.38;;;;;;;;;;5075762;28;20049;-84
2021/09/12 08:08:18;;;;;;;28.13;17.73;;;;;;;;;;5075065;28;20087;-83
2021/09/12 08:10:51;;;;;;;27.67;16.58;;;;;;;;;;5075740;28;20094;-83
2021/09/12 08:13:19;;;;;;;34.85;16.95;;;;;;;;;;5091596;28;20536;-83
2021/09/12 08:15:48;;;;;;;26.52;16.15;;;;;;;;;;5092360;28;20103;-83
2021/09/12 08:18:23;;;;;;;31.77;16.45;;;;;;;;;;5076435;28;20048;-83
2021/09/12 08:20:52;;;;;;;26.95;15.10;;;;;;;;;;5076156;28;20045;-83
2021/09/12 08:23:25;;;;;;;29.65;15.30;;;;;;;;;;5075349;28;20049;-84
2021/09/12 08:25:52;;;;;;;27.15;15.43;;;;;;;;;;5074193;28;20049;-83
2021/09/12 08:28:19;;;;;;;38.90;16.05;;;;;;;;;;5091950;28;20070;-84
2021/09/12 08:30:48;;;;;;;24.95;13.18;;;;;;;;;;5091404;28;20074;-84
2021/09/12 08:33:16;;;;;;;23.30;13.80;;;;;;;;;;5087568;28;20051;-84
2021/09/12 08:35:47;;;;;;;22.88;13.38;;;;;;;;;;5088976;28;20056;-84
2021/09/12 08:38:14;;;;;;;21.50;11.68;;;;;;;;;;5097410;28;20067;-85
2021/09/12 08:40:58;;;;;;;25.30;12.82;;;;;;;;;;5094611;28;20125;-85
2021/09/12 08:43:30;;;;;;;22.60;11.23;;;;;;;;;;5091034;28;20097;-85
2021/09/12 08:45:57;;;;;;;25.15;13.18;;;;;;;;;;5092076;28;20573;-85
2021/09/12 08:48:28;;;;;;;21.48;12.85;;;;;;;;;;5092194;28;20245;-83
2021/09/12 08:50:54;;;;;;;32.47;14.43;;;;;;;;;;5091322;28;20060;-83
2021/09/12 08:53:23;;;;;;;28.98;14.85;;;;;;;;;;5101131;28;20197;-83
2021/09/12 08:56:00;;;;;;;24.52;13.20;;;;;;;;;;5103484;28;20044;-84
2021/09/12 08:58:28;;;;;;;22.83;13.73;;;;;;;;;;5101028;28;20048;-84
2021/09/12 09:00:58;;;;;;;21.73;13.10;;;;;;;;;;5091904;28;20086;-83
2021/09/12 09:03:33;;;;;;;30.33;15.43;;;;;;;;;;5086318;28;20426;-83
2021/09/12 09:06:09;;;;;;;24.88;13.38;;;;;;;;;;5089547;28;20074;-83
2021/09/12 09:08:47;;;;;;;22.17;13.02;;;;;;;;;;5092035;28;20144;-83
2021/09/12 09:11:14;;;;;;;25.00;12.23;;;;;;;;;;5092857;28;20044;-84
2021/09/12 09:13:40;;;;;;;21.65;11.27;;;;;;;;;;5094378;28;20075;-84
2021/09/12 09:16:23;;;;;;;16.73;10.52;;;;;;;;;;5097704;28;20077;-83
2021/09/12 09:19:04;;;;;;;20.45;10.18;;;;;;;;;;5096936;28;20307;-84
2021/09/12 09:21:35;;;;;;;17.42;9.52;;;;;;;;;;5090165;28;20220;-84
2021/09/12 09:24:06;;;;;;;19.80;9.13;;;;;;;;;;5092217;28;20201;-84
2021/09/12 09:26:40;;;;;;;17.92;8.93;;;;;;;;;;5091749;28;20048;-84
2021/09/12 09:29:07;;;;;;;16.10;8.48;;;;;;;;;;5106415;28;20119;-84
2021/09/12 09:31:34;;;;;;;18.08;8.63;;;;;;;;;;5103862;28;20402;-84
2021/09/12 09:34:23;;;;;;;21.70;8.82;;;;;;;;;;5089736;28;20665;-84
2021/09/12 09:36:50;;;;;;;14.55;8.38;;;;;;;;;;5071713;28;20075;-84
2021/09/12 09:39:36;;;;;;;18.85;9.40;;;;;;;;;;5084501;28;20044;-85
2021/09/12 09:42:09;;;;;;;16.38;8.30;;;;;;;;;;5082443;28;20067;-85
2021/09/12 09:44:37;;;;;;;16.67;8.65;;;;;;;;;;5087577;28;20071;-83
2021/09/12 09:47:13;;;;;;;12.02;6.90;;;;;;;;;;5090728;28;20206;-83
2021/09/12 09:49:40;;;;;;;19.75;8.27;;;;;;;;;;5088356;28;20222;-83
2021/09/12 09:52:13;;;;;;;18.42;8.77;;;;;;;;;;5091193;28;20044;-83
2021/09/12 09:54:40;;;;;;;14.07;8.32;;;;;;;;;;5089921;28;20059;-83
2021/09/12 09:57:09;;;;;;;11.35;7.30;;;;;;;;;;5090007;28;20574;-83
2021/09/12 09:59:39;;;;;;;15.82;7.07;;;;;;;;;;5089598;28;20225;-84
2021/09/12 10:02:36;;;;;;;14.23;7.75;;;;;;;;;;5091781;28;20048;-84
2021/09/12 10:05:06;;;;;;;11.98;6.90;;;;;;;;;;5101246;28;20066;-84
2021/09/12 10:07:36;;;;;;;16.85;7.90;;;;;;;;;;5102005;28;20044;-84
2021/09/12 10:10:04;;;;;;;15.52;8.25;;;;;;;;;;5093074;28;20044;-83
2021/09/12 10:12:32;;;;;;;13.57;7.10;;;;;;;;;;5099292;28;20105;-83
2021/09/12 10:15:11;;;;;;;16.30;6.97;;;;;;;;;;5102877;28;20047;-84
2021/09/12 10:17:42;;;;;;;14.38;6.65;;;;;;;;;;5094767;28;20040;-84
2021/09/12 10:20:09;;;;;;;11.70;6.85;;;;;;;;;;5090246;28;20112;-85
2021/09/12 10:22:49;;;;;;;16.45;7.40;;;;;;;;;;5089450;28;20071;-84
2021/09/12 10:25:18;;;;;;;12.95;6.75;;;;;;;;;;5090315;28;20441;-84
2021/09/12 10:27:46;;;;;;;12.23;5.70;;;;;;;;;;5085928;28;20105;-84
2021/09/12 10:30:32;;;;;;;16.25;6.00;;;;;;;;;;5088640;28;20118;-84
2021/09/12 10:33:05;;;;;;;13.75;6.07;;;;;;;;;;5090198;28;20076;-84
2021/09/12 10:35:41;;;;;;;11.75;5.50;;;;;;;;;;5090632;28;20090;-85
2021/09/12 10:38:11;;;;;;;;;;;;;;;;;;5092203;28;20103;-85
2021/09/12 10:40:44;;;;;;;13.25;5.78;;;;;;;;;;5091801;28;19931;-85
2021/09/12 10:43:35;;;;;;;13.60;5.45;;;;;;;;;;5089483;28;20051;-85
2021/09/12 10:46:04;;;;;;;11.95;5.82;;;;;;;;;;5096480;28;20522;-85
2021/09/12 10:48:32;;;;;;;13.45;6.28;;;;;;;;;;5101316;28;20048;-85
2021/09/12 10:51:00;;;;;;;11.68;5.70;;;;;;;;;;5097760;28;20044;-84
2021/09/12 10:53:43;;;;;;;12.88;4.97;;;;;;;;;;5079809;28;20099;-85
2021/09/12 10:56:13;;;;;;;9.35;5.05;;;;;;;;;;5074496;28;20048;-85
2021/09/12 10:58:40;;;;;;;14.02;6.10;;;;;;;;;;5074795;28;20105;-85
2021/09/12 11:01:08;;;;;;;14.43;6.15;;;;;;;;;;5078875;28;20520;-84
2021/09/12 11:03:35;;;;;;;10.48;5.15;;;;;;;;;;5078052;28;20160;-84
2021/09/12 11:06:02;;;;;;;11.10;5.30;;;;;;;;;;5078663;28;20221;-85
2021/09/12 11:08:32;;;;;;;14.13;5.25;;;;;;;;;;5085692;28;20108;-85
2021/09/12 11:11:04;;;;;;;9.63;4.70;;;;;;;;;;5086053;28;20119;-83
2021/09/12 11:13:38;;;;;;;10.00;4.70;;;;;;;;;;5083511;28;20074;-84
2021/09/12 11:16:05;;;;;;;11.60;4.88;;;;;;;;;;5096352;28;20082;-84
2021/09/12 11:18:45;;;;;;;9.27;4.78;;;;;;;;;;5096308;28;20063;-84
2021/09/12 11:21:22;;;;;;;15.43;4.93;;;;;;;;;;5094292;28;20048;-84
2021/09/12 11:23:54;;;;;;;15.65;5.63;;;;;;;;;;5094115;28;20396;-84
2021/09/12 11:26:21;;;;;;;12.15;4.72;;;;;;;;;;5090788;28;20083;-85
2021/09/12 11:28:59;;;;;;;9.80;4.97;;;;;;;;;;5093786;28;20044;-84
2021/09/12 11:31:26;;;;;;;8.20;4.53;;;;;;;;;;5095386;28;20220;-84
2021/09/12 11:33:56;;;;;;;12.07;4.68;;;;;;;;;;5100577;28;20161;-84
2021/09/12 11:36:23;;;;;;;13.05;4.60;;;;;;;;;;5100274;28;20056;-85
2021/09/12 11:38:57;;;;;;;11.68;4.28;;;;;;;;;;5094495;28;20052;-83
2021/09/12 11:41:26;;;;;;;11.50;3.97;;;;;;;;;;5095715;28;20044;-83
2021/09/12 11:43:57;;;;;;;11.52;5.32;;;;;;;;;;5090553;28;20180;-83
2021/09/12 11:46:24;;;;;;;13.02;4.40;;;;;;;;;;5093123;28;20052;-83
2021/09/12 11:49:09;;;;;;;7.53;4.35;;;;;;;;;;5095091;28;20105;-83
2021/09/12 11:51:37;;;;;;;11.23;4.32;;;;;;;;;;5092572;28;20057;-83
2021/09/12 11:54:04;;;;;;;10.27;4.82;;;;;;;;;;5089175;28;20290;-83
2021/09/12 11:56:31;;;;;;;10.05;4.78;;;;;;;;;;5073136;28;20062;-83
2021/09/12 11:58:58;;;;;;;10.32;3.95;;;;;;;;;;5075097;28;20041;-84
2021/09/12 12:01:28;;;;;;;8.50;3.92;;;;;;;;;;5073646;28;20051;-84
2021/09/12 12:03:56;;;;;;;12.48;5.45;;;;;;;;;;5076363;28;20082;-83
2021/09/12 12:06:23;;;;;;;13.02;4.40;;;;;;;;;;5102035;28;20083;-85
2021/09/12 12:09:05;;;;;;;12.77;4.32;;;;;;;;;;5083843;28;20443;-84
2021/09/12 12:11:33;;;;;;;10.20;4.00;;;;;;;;;;5088728;28;20270;-84
2021/09/12 12:14:00;;;;;;;15.38;4.75;;;;;;;;;;5091575;28;20051;-83
2021/09/12 12:16:36;;;;;;;13.40;4.75;;;;;;;;;;5094644;28;20059;-86
2021/09/12 12:19:07;;;;;;;9.85;4.72;;;;;;;;;;5095810;28;20044;-84
2021/09/12 12:21:34;;;;;;;13.02;4.30;;;;;;;;;;5097985;28;20048;-83
2021/09/12 12:24:08;;;;;;;10.50;4.05;;;;;;;;;;5103863;28;20111;-83
2021/09/12 12:26:40;;;;;;;9.35;4.22;;;;;;;;;;5107359;28;20036;-83
2021/09/12 12:29:10;;;;;;;11.90;4.53;;;;;;;;;;5109127;28;20069;-83
2021/09/12 12:31:37;;;;;;;11.73;4.05;;;;;;;;;;5109621;28;20094;-84
2021/09/12 12:34:07;;;;;;;8.45;3.80;;;;;;;;;;5104600;28;20044;-84
2021/09/12 12:36:34;;;;;;;8.65;3.97;;;;;;;;;;5109181;27;20043;-83
2021/09/12 12:39:13;;;;;;;9.82;3.20;;;;;;;;;;5081301;28;20216;-83
2021/09/12 12:41:55;;;;;;;14.55;4.32;;;;;;;;;;5097503;28;20044;-83
2021/09/12 12:44:23;;;;;;;6.07;3.35;;;;;;;;;;5082475;28;20306;-82
2021/09/12 12:46:52;;;;;;;9.85;3.67;;;;;;;;;;5099074;28;21954;-84
2021/09/12 12:49:32;;;;;;;8.02;3.78;;;;;;;;;;5088397;28;20172;-83
2021/09/12 12:52:12;;;;;;;9.52;4.30;;;;;;;;;;5077817;28;20126;-83
2021/09/12 12:54:40;;;;;;;10.05;4.30;;;;;;;;;;5096407;28;20079;-83
2021/09/12 12:57:11;;;;;;;9.77;3.83;;;;;;;;;;5096709;28;20113;-82
2021/09/12 12:59:46;;;;;;;11.75;4.10;;;;;;;;;;5100488;28;20140;-83
2021/09/12 13:02:17;;;;;;;7.15;3.40;;;;;;;;;;5102884;28;20052;-83
2021/09/12 13:04:46;;;;;;;10.65;4.18;;;;;;;;;;5091081;28;20274;-82
2021/09/12 13:07:13;;;;;;;10.40;3.45;;;;;;;;;;5082929;28;20125;-83
2021/09/12 13:09:43;;;;;;;6.72;2.90;;;;;;;;;;5086529;28;20099;-84
2021/09/12 13:12:11;;;;;;;11.02;4.38;;;;;;;;;;5085334;28;20304;-84
2021/09/12 13:14:40;;;;;;;8.18;3.63;;;;;;;;;;5073015;28;20097;-83
2021/09/12 13:17:06;;;;;;;9.48;3.45;;;;;;;;;;5079110;28;20095;-82
2021/09/12 13:19:43;;;;;;;8.80;3.58;;;;;;;;;;5068076;28;20409;-82
2021/09/12 13:22:09;;;;;;;7.68;3.40;;;;;;;;;;5079565;28;20161;-82
2021/09/12 13:24:36;;;;;;;10.80;3.92;;;;;;;;;;5091356;28;20048;-82
2021/09/12 13:27:03;;;;;;;10.88;3.15;;;;;;;;;;5089265;28;20170;-82
2021/09/12 13:29:30;;;;;;;7.38;3.60;;;;;;;;;;5090491;28;20044;-83
2021/09/12 13:31:56;;;;;;;8.98;2.92;;;;;;;;;;5089104;28;20040;-82
2021/09/12 13:34:26;;;;;;;7.43;3.03;;;;;;;;;;5090476;28;20344;-82
2021/09/12 13:36:53;;;;;;;10.60;3.05;;;;;;;;;;5088767;28;20397;-82
2021/09/12 13:39:20;;;;;;;7.25;3.28;;;;;;;;;;5085553;28;20353;-82
2021/09/12 13:41:47;;;;;;;11.75;3.35;;;;;;;;;;5086914;28;20436;-82
2021/09/12 13:44:13;;;;;;;9.38;3.00;;;;;;;;;;5085631;28;20154;-82
2021/09/12 13:46:40;;;;;;;6.95;2.90;;;;;;;;;;5086911;28;20081;-82
2021/09/12 13:49:07;;;;;;;6.07;2.95;;;;;;;;;;5087718;28;20479;-82
2021/09/12 13:51:34;;;;;;;8.32;2.78;;;;;;;;;;5087551;28;20091;-82
2021/09/12 13:54:03;;;;;;;8.07;2.70;;;;;;;;;;5089372;28;20071;-82
2021/09/12 13:56:31;;;;;;;6.50;2.83;;;;;;;;;;5087862;28;20313;-82
2021/09/12 13:58:57;;;;;;;6.28;2.53;;;;;;;;;;5089540;28;20055;-82
2021/09/12 14:01:30;;;;;;;4.78;2.83;;;;;;;;;;5084961;28;20040;-82
2021/09/12 14:03:57;;;;;;;4.65;2.78;;;;;;;;;;5086304;28;20056;-82
2021/09/12 14:06:27;;;;;;;4.88;2.75;;;;;;;;;;5106094;27;20104;-82
2021/09/12 14:08:54;;;;;;;7.63;3.10;;;;;;;;;;5106536;28;20233;-82
2021/09/12 14:11:20;;;;;;;9.02;2.72;;;;;;;;;;5092146;28;20317;-82
2021/09/12 14:13:47;;;;;;;8.05;2.90;;;;;;;;;;5090052;28;20462;-83
2021/09/12 14:16:17;;;;;;;6.53;2.60;;;;;;;;;;5089275;28;20047;-82
2021/09/12 14:18:47;;;;;;;6.10;2.45;;;;;;;;;;5089761;28;20044;-84
2021/09/12 14:21:15;;;;;;;7.00;2.58;;;;;;;;;;5087316;28;20056;-82
2021/09/12 14:23:42;;;;;;;8.02;3.78;;;;;;;;;;5086525;28;20059;-83
2021/09/12 14:26:08;;;;;;;9.43;3.65;;;;;;;;;;5086604;28;20163;-83
2021/09/12 14:28:35;;;;;;;10.98;3.53;;;;;;;;;;5088343;28;20451;-83
2021/09/12 14:31:10;;;;;;;7.60;3.13;;;;;;;;;;5083451;28;20106;-83
2021/09/12 14:33:37;;;;;;;8.27;2.75;;;;;;;;;;5085916;28;20180;-83
2021/09/12 14:36:06;;;;;;;6.18;2.95;;;;;;;;;;5104507;28;20131;-83